Time;durP1;ratioP1;P1;durP2;ratioP2;P2;SDS_P1;SDS_P2;PMS_P1;PMS_P2;Temp;Humidity;BMP_temperature;BMP_pressure;BME280_temperature;BME280_humidity;BME280_pressure;Samples;Min_cycle;Max_cycle;Signal;HPM_P1;HPM_P2
2022/05/16 00:02:35;;;;;;;9.75;4.50;;;;;;;8.70;71.44;99415.27;4417189;79;20992;-80
2022/05/16 00:08:36;;;;;;;9.88;5.03;;;;;;;8.69;70.91;99416.42;4406972;79;21039;-79
2022/05/16 00:14:40;;;;;;;11.73;5.47;;;;;;;8.48;71.05;99418.03;4404556;79;21082;-79
2022/05/16 00:20:41;;;;;;;8.05;4.92;;;;;;;8.35;71.29;99408.33;4404778;79;21051;-79
2022/05/16 00:26:42;;;;;;;7.65;4.53;;;;;;;8.24;71.71;99411.93;4331619;81;21019;-79
2022/05/16 00:32:45;;;;;;;11.05;5.37;;;;;;;8.16;72.29;99411.48;4313506;81;21067;-79
2022/05/16 00:38:46;;;;;;;8.65;5.58;;;;;;;8.02;72.33;99409.14;4329960;81;21527;-79
2022/05/16 00:44:47;;;;;;;8.23;4.40;;;;;;;7.90;72.37;99405.92;4311671;81;21915;-79
2022/05/16 00:50:49;;;;;;;9.15;4.65;;;;;;;7.76;72.62;99408.25;4313028;81;21017;-79
2022/05/16 00:57:00;;;;;;;10.58;5.25;;;;;;;7.73;72.93;99408.14;4308468;82;21074;-79
2022/05/16 01:09:36;;;;;;;6.60;3.92;;;;;;;7.73;73.69;99413.59;4325174;81;21000;-79
2022/05/16 01:15:42;;;;;;;10.90;5.53;;;;;;;7.63;73.58;99409.41;4309870;80;21039;-79
2022/05/16 01:21:43;;;;;;;6.42;4.45;;;;;;;7.43;73.81;99411.74;4305564;81;21103;-79
2022/05/16 01:27:50;;;;;;;9.75;5.50;;;;;;;7.58;74.64;99424.63;4229661;82;21126;-79
2022/05/16 01:33:51;;;;;;;10.78;5.92;;;;;;;7.68;74.75;99431.53;4246645;82;21046;-80
2022/05/16 01:39:53;;;;;;;11.85;6.03;;;;;;;7.78;74.46;99430.47;4180326;83;21044;-79
2022/05/16 01:45:55;;;;;;;12.43;6.55;;;;;;;7.53;74.34;99427.59;4244663;82;21054;-79
2022/05/16 01:51:57;;;;;;;11.15;5.37;;;;;;;7.37;74.32;99422.66;4182054;84;21070;-79
2022/05/16 01:57:59;;;;;;;11.30;5.80;;;;;;;7.18;74.02;99421.09;4250573;83;21007;-79
2022/05/16 02:04:00;;;;;;;9.60;5.33;;;;;;;6.84;74.42;99417.48;4255370;82;20966;-79
2022/05/16 02:10:02;;;;;;;11.03;7.00;;;;;;;6.73;75.13;99407.37;4180321;84;21517;-79
2022/05/16 02:16:06;;;;;;;10.88;6.20;;;;;;;6.76;75.36;99402.05;4176434;83;20955;-79
2022/05/16 02:28:27;;;;;;;11.43;6.60;;;;;;;6.73;76.30;99407.37;4211995;83;21990;-79
2022/05/16 02:34:28;;;;;;;7.62;5.45;;;;;;;6.59;75.72;99404.19;4266949;82;21089;-79
2022/05/16 02:40:32;;;;;;;12.58;5.45;;;;;;;6.51;76.44;99411.88;4266272;83;21930;-79
2022/05/16 02:46:34;;;;;;;10.98;6.12;;;;;;;6.67;76.64;99418.25;4266149;82;21023;-79
2022/05/16 02:52:35;;;;;;;11.10;7.00;;;;;;;6.60;76.75;99431.05;4265191;82;21018;-79
2022/05/16 02:58:37;;;;;;;7.87;5.58;;;;;;;6.76;76.80;99432.53;4312704;80;21022;-79
2022/05/16 03:04:38;;;;;;;11.15;6.28;;;;;;;6.91;76.79;99438.66;4266677;82;20991;-79
2022/05/16 03:10:40;;;;;;;11.73;6.20;;;;;;;6.62;76.12;99436.15;4317436;80;21073;-79
2022/05/16 03:16:41;;;;;;;13.68;6.40;;;;;;;6.53;76.29;99428.66;4327544;80;21096;-78
2022/05/16 03:22:43;;;;;;;9.95;5.47;;;;;;;6.48;77.12;99429.67;4264719;82;21086;-79
2022/05/16 03:28:44;;;;;;;10.53;6.85;;;;;;;6.74;77.30;99442.40;4256471;82;21047;-80
2022/05/16 03:34:53;;;;;;;14.58;6.70;;;;;;;6.88;77.00;99440.70;4222035;83;21052;-79
2022/05/16 03:40:55;;;;;;;8.78;5.53;;;;;;;6.77;77.02;99448.52;4066616;84;33933;-79
2022/05/16 03:46:56;;;;;;;14.68;7.33;;;;;;;6.86;77.35;99452.52;4133229;85;21057;-80
2022/05/16 03:52:59;;;;;;;9.93;6.45;;;;;;;7.07;77.36;99445.82;4167476;84;21077;-79
2022/05/16 03:59:01;;;;;;;13.75;6.70;;;;;;;6.98;77.40;99445.15;4134259;84;21104;-79
2022/05/16 04:05:04;;;;;;;15.53;6.53;;;;;;;7.00;77.79;99438.00;4135658;85;21108;-79
2022/05/16 04:11:06;;;;;;;8.90;5.87;;;;;;;7.08;77.93;99443.31;4135653;83;21073;-80
2022/05/16 04:17:07;;;;;;;10.98;6.42;;;;;;;7.29;78.22;99441.83;4134898;84;20981;-80
2022/05/16 04:23:09;;;;;;;12.98;7.47;;;;;;;7.59;78.26;99440.42;4133314;84;20981;-79
2022/05/16 04:29:12;;;;;;;10.45;7.10;;;;;;;7.84;78.07;99442.75;4136025;84;21532;-79
2022/05/16 04:35:13;;;;;;;18.05;9.25;;;;;;;7.99;77.93;99450.73;4116706;85;21095;-80
2022/05/16 04:47:34;;;;;;;16.17;7.70;;;;;;;8.37;78.15;99450.25;4117572;86;20998;-79
2022/05/16 04:53:35;;;;;;;13.15;6.25;;;;;;;8.61;78.18;99456.39;4116331;85;21053;-78
2022/05/16 04:59:37;;;;;;;11.50;5.37;;;;;;;8.85;78.02;99455.41;4115470;85;21717;-79
2022/05/16 05:05:38;;;;;;;11.40;5.70;;;;;;;9.05;77.90;99451.05;4113159;85;21087;-79
2022/05/16 05:17:59;;;;;;;13.98;6.58;;;;;;;9.51;77.72;99451.56;4114195;85;21550;-78
2022/05/16 05:24:01;;;;;;;16.10;6.67;;;;;;;9.81;77.92;99451.81;4107539;85;21036;-80
2022/05/16 05:30:04;;;;;;;14.18;6.50;;;;;;;10.22;77.62;99455.81;4105348;85;21089;-79
2022/05/16 05:36:07;;;;;;;9.03;5.17;;;;;;;10.59;77.39;99447.31;4094974;85;21516;-79
2022/05/16 05:42:09;;;;;;;9.18;4.50;;;;;;;10.88;76.82;99450.19;4089803;85;21030;-78
2022/05/16 05:48:11;;;;;;;7.85;4.17;;;;;;;11.09;76.55;99462.88;4090239;85;21073;-79
2022/05/16 05:54:12;;;;;;;11.45;4.70;;;;;;;11.29;76.33;99455.34;4085965;85;21727;-80
2022/05/16 06:00:14;;;;;;;14.03;6.03;;;;;;;11.51;76.21;99453.73;4095900;85;21053;-80
2022/05/16 06:06:16;;;;;;;14.83;6.37;;;;;;;11.80;76.03;99453.78;4099000;85;21026;-80
2022/05/16 06:12:17;;;;;;;12.23;5.90;;;;;;;12.10;75.74;99451.03;4105808;85;21139;-80
2022/05/16 06:18:19;;;;;;;16.77;7.42;;;;;;;12.42;75.79;99447.48;4087295;85;21538;-80
2022/05/16 06:30:43;;;;;;;12.25;6.37;;;;;;;13.10;75.43;99440.69;4092842;85;21011;-80
2022/05/16 06:36:45;;;;;;;19.02;6.70;;;;;;;13.45;74.95;99434.86;4086144;85;21061;-80
2022/05/16 06:42:47;;;;;;;15.95;7.03;;;;;;;13.79;74.56;99429.95;4094251;85;21020;-80
2022/05/16 06:48:48;;;;;;;13.68;6.62;;;;;;;14.12;73.82;99437.40;4093105;85;21018;-80
2022/05/16 06:54:52;;;;;;;13.22;5.50;;;;;;;14.68;73.88;99445.05;4096899;85;21059;-80
2022/05/16 07:00:53;;;;;;;15.28;6.10;;;;;;;15.21;72.49;99437.59;4098729;85;20994;-80
2022/05/16 07:06:54;;;;;;;16.23;6.25;;;;;;;15.66;71.60;99436.77;4095571;85;21026;-81
2022/05/16 07:12:57;;;;;;;10.50;5.08;;;;;;;16.11;70.37;99444.73;4097969;85;21884;-80
2022/05/16 07:18:59;;;;;;;12.10;5.40;;;;;;;16.58;69.89;99442.75;4096571;85;21010;-80
2022/05/16 07:25:00;;;;;;;11.15;4.10;;;;;;;17.20;68.93;99442.69;4094286;85;21143;-81
2022/05/16 07:31:01;;;;;;;10.95;4.67;;;;;;;17.85;67.99;99441.70;4094236;85;21107;-82
2022/05/16 07:37:05;;;;;;;11.35;4.55;;;;;;;18.41;66.67;99450.15;4093044;85;21065;-81
2022/05/16 07:43:07;;;;;;;9.95;3.17;;;;;;;19.09;66.08;99438.23;4095896;85;21014;-81
2022/05/16 07:49:09;;;;;;;9.35;3.00;;;;;;;19.80;64.61;99444.16;4100720;85;21054;-82
2022/05/16 07:55:12;;;;;;;7.15;3.20;;;;;;;20.31;63.47;99434.44;4100560;85;21061;-82
2022/05/16 08:01:13;;;;;;;6.90;2.80;;;;;;;20.71;62.01;99436.52;4097945;85;22186;-82
2022/05/16 08:07:15;;;;;;;6.33;2.33;;;;;;;21.07;59.17;99438.09;4072106;85;21030;-81
2022/05/16 08:13:16;;;;;;;5.62;2.00;;;;;;;21.12;57.53;99443.73;4090890;85;21018;-82
2022/05/16 08:19:19;;;;;;;4.72;1.87;;;;;;;21.23;57.45;99443.66;4093911;85;21570;-82
2022/05/16 08:25:20;;;;;;;5.12;2.35;;;;;;;21.39;51.35;99443.63;4094370;85;22078;-82
2022/05/16 08:31:28;;;;;;;4.12;1.27;;;;;;;21.23;53.18;99438.69;4117665;84;21081;-81
2022/05/16 08:44:11;;;;;;;6.53;2.95;;;;;;;21.55;50.83;99440.83;4142270;84;22024;-82
2022/05/16 08:50:28;;;;;;;7.75;3.30;;;;;;;21.29;48.39;99433.56;4141948;84;21648;-83
2022/05/16 08:56:34;;;;;;;7.65;2.20;;;;;;;21.34;49.44;99430.86;4138088;84;21406;-81
2022/05/16 09:02:37;;;;;;;5.33;1.77;;;;;;;21.17;40.34;99424.50;4253738;82;21574;-82
2022/05/16 09:08:58;;;;;;;3.77;1.60;;;;;;;21.33;45.40;99433.48;4244978;82;21010;-82
2022/05/16 09:15:30;;;;;;;5.70;1.70;;;;;;;21.50;44.58;99432.23;4248952;82;21665;-82
2022/05/16 09:21:55;;;;;;;4.00;1.80;;;;;;;21.66;41.58;99420.44;4253741;81;21017;-82
2022/05/16 09:34:19;;;;;;;3.52;1.47;;;;;;;22.55;43.18;99421.55;4224203;81;21018;-82
2022/05/16 09:40:40;;;;;;;4.33;1.80;;;;;;;23.13;42.35;99420.85;4243870;82;21004;-82
2022/05/16 09:46:44;;;;;;;4.37;1.90;;;;;;;23.81;41.45;99407.56;4252690;81;20942;-83
2022/05/16 09:52:50;;;;;;;3.55;1.52;;;;;;;24.60;40.63;99400.78;4196838;82;33198;-83
2022/05/16 09:59:00;;;;;;;5.15;1.70;;;;;;;24.86;39.70;99397.81;4188025;84;21022;-82
2022/05/16 10:05:03;;;;;;;6.78;1.85;;;;;;;24.91;36.59;99402.20;4188919;83;21067;-83
2022/05/16 10:11:10;;;;;;;5.80;1.80;;;;;;;24.68;35.89;99397.14;4184566;83;20998;-83
2022/05/16 10:17:15;;;;;;;;;;;;;;;25.30;37.13;99394.37;4192851;83;21023;-83
2022/05/16 10:23:20;;;;;;;;;;;;;;;25.86;37.05;99386.33;4191660;83;20140;-83
2022/05/16 10:29:31;;;;;;;;;;;;;;;26.07;36.99;99389.62;4186688;83;20201;-83
2022/05/16 10:35:34;;;;;;;;;;;;;;;26.28;35.54;99389.89;4165154;84;20588;-83
2022/05/16 10:41:39;;;;;;;;;;;;;;;26.87;34.71;99380.03;4167531;84;20867;-83
2022/05/16 10:48:14;;;;;;;;;;;;;;;26.07;33.45;99376.99;4163078;84;20234;-83
2022/05/16 10:54:23;;;;;;;;;;;;;;;26.32;33.52;99382.06;4160104;84;20545;-84
2022/05/16 11:00:37;;;;;;;;;;;;;;;27.26;33.97;99376.09;4157722;84;20205;-83
2022/05/16 11:06:53;;;;;;;;;;;;;;;27.53;33.26;99375.87;4157208;84;20620;-83
2022/05/16 11:13:19;;;;;;;;;;;;;;;28.14;32.94;99357.40;4154497;84;20464;-84
2022/05/16 11:19:52;;;;;;;;;;;;;;;28.36;35.25;99366.20;4170306;84;20205;-84
2022/05/16 11:26:08;;;;;;;;;;;;;;;28.16;33.51;99360.48;4168718;84;20453;-83
2022/05/16 11:32:22;;;;;;;;;;;;;;;28.38;32.93;99348.82;4178243;84;20948;-81
2022/05/16 11:38:27;;;;;;;;;;;;;;;28.32;34.64;99347.95;4193401;83;20125;-82
2022/05/16 11:44:31;;;;;;;;;;;;;;;27.90;33.31;99339.81;4193629;84;20804;-84
2022/05/16 11:50:50;;;;;;;;;;;;;;;27.64;32.49;99337.37;4166995;83;20432;-83
2022/05/16 12:03:18;;;;;;;;;;;;;;;26.86;32.29;99318.72;4194002;83;20122;-83
2022/05/16 12:09:25;;;;;;;;;;;;;;;26.80;33.27;99318.58;4192042;83;20180;-83
2022/05/16 12:15:29;;;;;;;;;;;;;;;26.47;33.23;99313.56;4185726;83;20137;-83
2022/05/16 12:21:32;;;;;;;;;;;;;;;26.26;32.96;99310.38;4192115;83;20137;-83
2022/05/16 12:27:40;;;;;;;;;;;;;;;25.97;33.37;99310.11;4191640;83;20165;-82
2022/05/16 12:33:45;;;;;;;;;;;;;;;25.60;32.34;99305.81;4177046;83;20249;-83
2022/05/16 12:39:53;;;;;;;;;;;;;;;25.48;33.12;99299.76;4168967;84;20822;-83
2022/05/16 12:46:10;;;;;;;;;;;;;;;25.16;32.87;99297.53;4169950;84;20114;-84
2022/05/16 12:52:19;;;;;;;;;;;;;;;24.80;32.38;99290.47;4166434;84;20166;-82
2022/05/16 12:58:32;;;;;;;;;;;;;;;24.36;30.14;99280.84;4169972;84;20498;-83
2022/05/16 13:04:47;;;;;;;;;;;;;;;24.10;32.23;99274.51;4169596;84;20117;-82
2022/05/16 13:10:55;;;;;;;;;;;;;;;24.44;33.75;99267.34;4171578;84;20185;-83
2022/05/16 13:16:59;;;;;;;;;;;;;;;24.20;32.58;99262.89;4168493;84;20472;-83
2022/05/16 13:23:01;;;;;;;;;;;;;;;24.33;32.58;99250.20;4163163;84;20145;-84
2022/05/16 13:29:21;;;;;;;;;;;;;;;24.38;32.53;99251.76;4159642;84;20157;-83
2022/05/16 13:35:36;;;;;;;;;;;;;;;24.51;32.48;99246.83;4167219;84;20166;-83
2022/05/16 13:41:38;;;;;;;;;;;;;;;24.60;32.86;99245.45;4163669;84;20153;-83
2022/05/16 13:47:42;;;;;;;;;;;;;;;24.50;33.51;99232.69;4165555;84;20586;-82
2022/05/16 13:53:43;;;;;;;;;;;;;;;24.33;32.09;99221.61;4166540;84;20175;-83
2022/05/16 13:59:45;;;;;;;;;;;;;;;24.45;32.62;99222.72;4165703;84;20185;-83
2022/05/16 14:05:49;;;;;;;;;;;;;;;24.58;32.64;99217.78;4166738;84;20181;-83
2022/05/16 14:11:51;;;;;;;;;;;;;;;24.61;33.42;99211.25;4166798;84;20724;-83
2022/05/16 14:18:03;;;;;;;;;;;;;;;24.37;32.98;99208.85;4148685;84;20651;-83
2022/05/16 14:24:08;;;;;;;;;;;;;;;24.33;33.12;99202.64;4166204;84;20142;-82
2022/05/16 14:30:16;;;;;;;;;;;;;;;24.55;33.12;99192.91;4164548;84;20193;-84
2022/05/16 14:36:24;;;;;;;;;;;;;;;24.53;32.69;99196.78;4189299;83;20121;-83
2022/05/16 14:42:28;;;;;;;;;;;;;;;24.44;32.18;99194.59;4191551;83;20161;-82
2022/05/16 14:48:30;;;;;;;;;;;;;;;24.47;34.37;99186.66;4194745;83;20117;-83
2022/05/16 14:54:43;;;;;;;;;;;;;;;24.67;33.50;99175.07;4192086;83;20113;-84
2022/05/16 15:07:06;;;;;;;;;;;;;;;24.68;33.22;99176.01;4193653;84;20133;-83
2022/05/16 15:13:07;;;;;;;;;;;;;;;24.49;32.59;99159.76;4190845;83;20117;-83
2022/05/16 15:19:12;;;;;;;;;;;;;;;24.24;32.42;99156.47;4193819;83;20124;-84
2022/05/16 15:25:16;;;;;;;;;;;;;;;24.01;32.65;99153.59;4162459;85;20152;-84
2022/05/16 15:31:17;;;;;;;;;;;;;;;23.88;32.67;99149.34;4197296;84;20168;-83
2022/05/16 15:37:21;;;;;;;;;;;;;;;23.75;32.62;99150.84;4215997;83;20150;-83
2022/05/16 15:43:22;;;;;;;;;;;;;;;23.60;32.18;99135.84;4211417;83;20176;-83
2022/05/16 15:49:23;;;;;;;;;;;;;;;23.50;31.90;99132.87;4208066;83;20216;-83
2022/05/16 15:55:25;;;;;;;;;;;;;;;23.43;32.59;99124.75;4212331;83;20152;-83
2022/05/16 16:01:26;;;;;;;;;;;;;;;23.26;32.36;99103.11;4212694;84;20136;-83
2022/05/16 16:13:47;;;;;;;;;;;;;;;22.88;33.12;99101.91;4211969;84;20145;-82
2022/05/16 16:19:49;;;;;;;;;;;;;;;22.65;34.30;99090.56;4213597;83;20124;-83
2022/05/16 16:25:51;;;;;;;;;;;;;;;22.61;33.66;99091.93;4208117;83;20128;-82
2022/05/16 16:31:52;;;;;;;;;;;;;;;22.56;33.18;99086.31;4198292;83;20110;-82
2022/05/16 16:37:56;;;;;;;;;;;;;;;22.51;33.13;99102.80;4165445;84;20145;-83
2022/05/16 16:43:57;;;;;;;;;;;;;;;22.46;33.99;99088.03;4168018;84;20161;-82
2022/05/16 16:49:58;;;;;;;;;;;;;;;22.27;33.75;99088.49;4169812;84;20193;-83
2022/05/16 17:02:24;;;;;;;;;;;;;;;22.06;34.44;99091.23;4048418;83;10000259;-82
2022/05/16 17:08:24;;;;;;;;;;;;;;;21.95;33.84;99090.81;4170150;84;20122;-82
2022/05/16 17:14:25;;;;;;;;;;;;;;;21.81;34.18;99094.84;4170759;84;20162;-82
2022/05/16 17:20:27;;;;;;;;;;;;;;;21.37;34.45;99093.83;4166533;84;20151;-82
2022/05/16 17:26:29;;;;;;;;;;;;;;;21.18;34.47;99096.20;4165874;84;20187;-82
2022/05/16 17:32:30;;;;;;;;;;;;;;;21.12;34.97;99111.89;4170547;83;20114;-82
2022/05/16 17:38:32;;;;;;;;;;;;;;;20.99;35.13;99111.07;4191117;83;20122;-82
2022/05/16 17:44:34;;;;;;;;;;;;;;;20.80;35.72;99115.36;4192682;83;20121;-83
2022/05/16 17:50:41;;;;;;;;;;;;;;;20.53;36.45;99117.09;4190845;83;20288;-82
2022/05/16 17:56:43;;;;;;;;;;;;;;;20.25;36.91;99124.03;4188962;83;20355;-82
2022/05/16 18:02:44;;;;;;;;;;;;;;;19.88;37.71;99135.83;4191027;83;20161;-82
2022/05/16 18:08:45;;;;;;;;;;;;;;;19.64;38.58;99127.47;4189680;83;20157;-81
2022/05/16 18:14:46;;;;;;;;;;;;;;;19.34;39.27;99140.23;4193870;83;20105;-81
2022/05/16 18:20:48;;;;;;;;;;;;;;;19.04;39.67;99143.84;4191720;83;20109;-82
2022/05/16 18:26:49;;;;;;;;;;;;;;;18.73;40.40;99141.27;4193106;83;20228;-82
2022/05/16 18:37:45;;;;;;;15.28;4.78;;;;;;;18.15;40.86;99149.45;4658781;74;22182;-80
2022/05/16 18:56:27;;;;;;;7.62;3.95;;;;;;;17.20;43.15;99175.14;4589654;75;21014;-81
2022/05/16 19:02:29;;;;;;;14.38;4.70;;;;;;;16.94;44.20;99173.69;4612899;77;21012;-81
2022/05/16 19:08:30;;;;;;;9.18;4.42;;;;;;;16.67;44.91;99188.79;4623151;77;21547;-81
2022/05/16 19:14:32;;;;;;;9.23;4.37;;;;;;;16.44;45.69;99194.16;4590494;75;20966;-80
2022/05/16 19:20:34;;;;;;;13.72;3.87;;;;;;;16.23;46.40;99197.64;4591047;75;21018;-81
2022/05/16 19:26:36;;;;;;;10.72;3.55;;;;;;;16.01;47.08;99192.89;4584729;75;21008;-81
2022/05/16 19:32:38;;;;;;;7.67;3.62;;;;;;;15.75;47.96;99187.97;4580468;75;21037;-81
2022/05/16 19:38:40;;;;;;;11.30;4.60;;;;;;;15.57;48.81;99190.03;4638384;75;20942;-80
2022/05/16 19:44:43;;;;;;;6.95;4.17;;;;;;;15.43;49.71;99198.39;4629267;75;20945;-80
2022/05/16 19:50:46;;;;;;;11.78;4.28;;;;;;;15.37;49.85;99200.77;4620240;75;20987;-81
2022/05/16 19:56:48;;;;;;;10.53;4.90;;;;;;;15.29;50.31;99200.60;4619778;75;22084;-81
2022/05/16 20:02:49;;;;;;;8.43;4.37;;;;;;;15.03;50.96;99194.22;4630374;75;21510;-81
2022/05/16 20:08:56;;;;;;;8.30;3.50;;;;;;;14.78;51.92;99205.91;4620565;75;21570;-81
2022/05/16 20:14:54;;;;;;;9.00;4.25;;;;;;;14.79;53.19;99217.70;4612804;75;21020;-80
2022/05/16 20:20:56;;;;;;;11.63;4.20;;;;;;;14.69;53.50;99225.41;4611534;75;20954;-81
2022/05/16 20:26:57;;;;;;;12.33;4.58;;;;;;;14.38;53.24;99232.52;4622050;75;21037;-80
2022/05/16 20:33:00;;;;;;;10.32;4.80;;;;;;;14.09;53.83;99231.68;4614926;75;21022;-81
2022/05/16 20:39:03;;;;;;;11.00;5.60;;;;;;;13.72;54.25;99229.06;4628647;75;21026;-80
2022/05/16 20:45:08;;;;;;;10.70;4.67;;;;;;;13.55;55.10;99232.56;4624199;75;21069;-81
2022/05/16 20:51:09;;;;;;;21.25;8.58;;;;;;;13.50;56.39;99234.34;4631262;75;21066;-80
2022/05/16 20:57:10;;;;;;;17.98;9.38;;;;;;;13.42;56.47;99234.11;4622564;75;20974;-79
2022/05/16 21:03:12;;;;;;;12.50;7.15;;;;;;;13.35;56.92;99245.87;4635834;75;20991;-80
2022/05/16 21:09:14;;;;;;;13.98;6.42;;;;;;;13.10;57.21;99243.59;4624953;75;20968;-80
2022/05/16 21:15:21;;;;;;;14.03;6.47;;;;;;;12.62;59.12;99246.23;4632043;75;21605;-80
2022/05/16 21:21:22;;;;;;;11.97;5.22;;;;;;;12.59;59.24;99237.38;4628885;75;21074;-80
2022/05/16 21:27:25;;;;;;;10.30;5.22;;;;;;;12.60;59.95;99229.34;4610625;75;21017;-80
2022/05/16 21:33:26;;;;;;;12.75;5.72;;;;;;;12.56;60.16;99232.05;4608241;75;21089;-80
2022/05/16 21:39:27;;;;;;;10.30;5.65;;;;;;;12.53;60.29;99234.77;4552485;77;21526;-80
2022/05/16 21:45:30;;;;;;;17.25;6.40;;;;;;;12.57;61.10;99232.85;4513833;77;21016;-80
2022/05/16 21:51:32;;;;;;;12.18;6.12;;;;;;;12.51;61.33;99235.16;4505639;77;21055;-79
2022/05/16 21:57:33;;;;;;;10.82;6.03;;;;;;;12.46;61.83;99225.13;4506335;77;20994;-79
2022/05/16 22:03:35;;;;;;;19.27;8.20;;;;;;;12.52;61.52;99231.26;4509524;77;21012;-80
2022/05/16 22:09:36;;;;;;;12.75;5.78;;;;;;;12.61;61.18;99226.20;4508653;77;21000;-80
2022/05/16 22:15:38;;;;;;;12.88;6.70;;;;;;;12.71;61.18;99226.08;4507711;77;21022;-80
2022/05/16 22:21:43;;;;;;;15.23;6.00;;;;;;;12.83;61.32;99222.20;4517057;75;22167;-80
2022/05/16 22:27:44;;;;;;;17.25;6.47;;;;;;;12.90;61.83;99222.26;4514161;77;21000;-80
2022/05/16 22:33:47;;;;;;;14.63;6.37;;;;;;;12.92;61.94;99217.17;4508176;77;21075;-79
2022/05/16 22:39:48;;;;;;;11.88;5.80;;;;;;;13.00;62.49;99216.84;4507783;77;21000;-79
2022/05/16 22:45:49;;;;;;;15.05;6.22;;;;;;;12.97;61.96;99209.91;4510237;77;21031;-79
2022/05/16 22:51:51;;;;;;;14.53;6.33;;;;;;;12.94;61.94;99207.94;4507925;77;20979;-80
2022/05/16 22:57:52;;;;;;;11.15;5.55;;;;;;;12.94;62.15;99204.61;4510527;77;21071;-80
2022/05/16 23:03:53;;;;;;;9.38;5.03;;;;;;;12.94;62.25;99205.98;4513164;77;21860;-79
2022/05/16 23:09:55;;;;;;;13.13;5.45;;;;;;;12.91;62.46;99198.52;4512428;77;21984;-79
2022/05/16 23:15:56;;;;;;;9.53;4.85;;;;;;;12.88;62.76;99209.48;4513098;77;21882;-79
2022/05/16 23:21:57;;;;;;;11.75;4.67;;;;;;;12.90;63.10;99207.14;4516507;77;21039;-79
2022/05/16 23:27:59;;;;;;;10.95;4.72;;;;;;;12.91;63.05;99208.70;4508493;77;22001;-80
2022/05/16 23:34:01;;;;;;;9.00;5.10;;;;;;;12.89;63.21;99215.97;4510824;76;21605;-80
2022/05/16 23:40:05;;;;;;;12.50;5.33;;;;;;;12.83;63.21;99205.72;4512244;77;21028;-79
2022/05/16 23:46:06;;;;;;;10.78;4.85;;;;;;;12.76;63.87;99210.61;4508837;77;21489;-80
2022/05/16 23:52:10;;;;;;;9.58;4.65;;;;;;;12.65;64.14;99199.55;4512159;77;21020;-79
2022/05/16 23:58:11;;;;;;;11.33;4.83;;;;;;;12.49;64.43;99197.70;4515192;77;21003;-80
